Terminal Aerodrome Forecast
Issued by NWS

Home | Current Version | Previous Version | Text Only | Print | Product List | Glossary On
Versions: 1 2 3 4 5 6 7 8 9 10 11 12 13 14 15 16 17 18 19 20 21 22 23 24 25 26 27 28 29 30 31 32
000
FTUS41 KBOX 251124
TAFACK
TAF
KACK 251124Z 2512/2612 28006KT P6SM OVC006
     FM251300 27006KT P6SM BKN015
     FM251400 25004KT P6SM BKN130
     FM251500 00000KT P6SM BKN080
     FM251600 VRB03KT P6SM SCT080
     FM251800 20007KT P6SM FEW250
     FM252000 23012KT P6SM FEW080
     FM260700 27010KT P6SM FEW250
     FM261100 31009KT P6SM FEW250=

USA.gov is the U.S. government's official web portal to all federal, state and local government web resources and services.